createdAt,value
2018-11-23T00:00:52.454Z,1012.31
2018-11-23T00:01:53.035Z,1012.27
2018-11-23T00:02:52.493Z,1012.26
2018-11-23T00:03:52.422Z,1012.26
2018-11-23T00:04:52.412Z,1012.27
2018-11-23T00:05:52.410Z,1012.24
2018-11-23T00:06:52.391Z,1012.24
2018-11-23T00:07:52.448Z,1012.25
2018-11-23T00:08:52.372Z,1012.26
2018-11-23T00:09:52.363Z,1012.25
2018-11-23T00:10:52.350Z,1012.25
2018-11-23T00:11:52.339Z,1012.28
2018-11-23T00:12:52.394Z,1012.29
2018-11-23T00:13:52.322Z,1012.32
2018-11-23T00:14:52.312Z,1012.35
2018-11-23T00:15:52.298Z,1012.31
2018-11-23T00:16:52.287Z,1012.30
2018-11-23T00:17:52.340Z,1012.30
2018-11-23T00:18:52.268Z,1012.33
2018-11-23T00:19:52.260Z,1012.22
2018-11-23T00:20:52.250Z,1012.24
2018-11-23T00:21:52.234Z,1012.25
2018-11-23T00:22:52.599Z,1012.29
2018-11-23T00:23:52.219Z,1012.25
2018-11-23T00:24:52.213Z,1012.29
2018-11-23T00:25:52.199Z,1012.26
2018-11-23T00:26:52.187Z,1012.30
2018-11-23T00:27:52.246Z,1012.35
2018-11-23T00:28:52.167Z,1012.35
2018-11-23T00:29:52.155Z,1012.42
2018-11-23T00:30:52.146Z,1012.41
2018-11-23T00:31:52.133Z,1012.44
2018-11-23T00:32:52.188Z,1012.49
2018-11-23T00:33:52.114Z,1012.51
2018-11-23T00:34:52.104Z,1012.46
2018-11-23T00:35:52.095Z,1012.44
2018-11-23T00:36:52.085Z,1012.47
2018-11-23T00:37:52.137Z,1012.39
2018-11-23T00:38:52.074Z,1012.45
2018-11-23T00:39:52.052Z,1012.42
2018-11-23T00:40:52.042Z,1012.48
2018-11-23T00:41:52.031Z,1012.43
2018-11-23T00:42:52.080Z,1012.43
2018-11-23T00:43:52.527Z,1012.43
2018-11-23T00:44:52.002Z,1012.45
2018-11-23T00:45:51.991Z,1012.43
2018-11-23T00:46:51.981Z,1012.50
2018-11-23T00:47:52.038Z,1012.44
2018-11-23T00:48:51.959Z,1012.46
2018-11-23T00:49:51.947Z,1012.47
2018-11-23T00:50:51.938Z,1012.54
2018-11-23T00:51:51.928Z,1012.54
2018-11-23T00:52:51.989Z,1012.46
2018-11-23T00:53:51.908Z,1012.50
2018-11-23T00:54:51.898Z,1012.49
2018-11-23T00:55:51.885Z,1012.44
2018-11-23T00:56:51.875Z,1012.50
2018-11-23T00:57:51.869Z,1012.55
2018-11-23T00:58:51.916Z,1012.55
2018-11-23T00:59:51.845Z,1012.54
2018-11-23T01:00:51.833Z,1012.49
2018-11-23T01:01:51.826Z,1012.48
2018-11-23T01:02:51.820Z,1012.46
2018-11-23T01:03:51.867Z,1012.46
2018-11-23T01:04:52.520Z,1012.41
2018-11-23T01:05:51.783Z,1012.46
2018-11-23T01:06:52.534Z,1012.50
2018-11-23T01:07:51.766Z,1012.43
2018-11-23T01:08:51.819Z,1012.39
2018-11-23T01:09:51.750Z,1012.46
2018-11-23T01:10:51.734Z,1012.42
2018-11-23T01:11:51.723Z,1012.40
2018-11-23T01:12:51.714Z,1012.37
2018-11-23T01:13:51.765Z,1012.42
2018-11-23T01:14:51.696Z,1012.47
2018-11-23T01:15:51.680Z,1012.39
2018-11-23T01:16:51.673Z,1012.41
2018-11-23T01:17:51.659Z,1012.43
2018-11-23T01:18:51.722Z,1012.40
2018-11-23T01:19:51.642Z,1012.36
2018-11-23T01:20:51.635Z,1012.34
2018-11-23T01:21:51.620Z,1012.35
2018-11-23T01:22:51.611Z,1012.34
2018-11-23T01:23:51.669Z,1012.31
2018-11-23T01:24:51.594Z,1012.39
2018-11-23T01:25:52.520Z,1012.35
2018-11-23T01:26:51.572Z,1012.39
2018-11-23T01:27:51.558Z,1012.42
2018-11-23T01:28:51.609Z,1012.46
2018-11-23T01:29:51.541Z,1012.44
2018-11-23T01:30:51.528Z,1012.47
2018-11-23T01:31:51.519Z,1012.45
2018-11-23T01:32:51.510Z,1012.44
2018-11-23T01:33:51.556Z,1012.46
2018-11-23T01:34:51.489Z,1012.43
2018-11-23T01:35:51.480Z,1012.44
2018-11-23T01:36:51.468Z,1012.42
2018-11-23T01:37:51.457Z,1012.37
2018-11-23T01:38:51.508Z,1012.40
2018-11-23T01:39:51.435Z,1012.40
2018-11-23T01:40:51.426Z,1012.36
2018-11-23T01:41:51.417Z,1012.43
2018-11-23T01:42:51.411Z,1012.42
2018-11-23T01:43:51.459Z,1012.38
2018-11-23T01:44:51.384Z,1012.39
2018-11-23T01:45:51.375Z,1012.36
2018-11-23T01:46:52.018Z,1012.32
2018-11-23T01:47:51.353Z,1012.31
2018-11-23T01:48:51.403Z,1012.36
2018-11-23T01:49:51.333Z,1012.38
2018-11-23T01:50:51.324Z,1012.37
2018-11-23T01:51:51.310Z,1012.36
2018-11-23T01:52:51.300Z,1012.40
2018-11-23T01:53:51.360Z,1012.34
2018-11-23T01:54:51.282Z,1012.35
2018-11-23T01:55:51.273Z,1012.35
2018-11-23T01:56:51.258Z,1012.27
2018-11-23T01:57:51.249Z,1012.29
2018-11-23T01:58:51.238Z,1012.23
2018-11-23T01:59:51.290Z,1012.19
2018-11-23T02:00:51.219Z,1012.19
2018-11-23T02:01:51.212Z,1012.24
2018-11-23T02:02:51.199Z,1012.25
2018-11-23T02:03:51.190Z,1012.20
2018-11-23T02:04:51.241Z,1012.20
2018-11-23T02:05:51.171Z,1012.19
2018-11-23T02:06:51.156Z,1012.20
2018-11-23T02:07:53.013Z,1012.15
2018-11-23T02:08:51.136Z,1012.17
2018-11-23T02:09:51.196Z,1012.13
2018-11-23T02:10:51.118Z,1012.16
2018-11-23T02:11:51.105Z,1012.12
2018-11-23T02:12:51.094Z,1012.13
2018-11-23T02:13:51.087Z,1012.20
2018-11-23T02:14:51.137Z,1012.22
2018-11-23T02:15:51.064Z,1012.25
2018-11-23T02:16:51.057Z,1012.24
2018-11-23T02:17:51.042Z,1012.23
2018-11-23T02:18:51.034Z,1012.18
2018-11-23T02:19:51.095Z,1012.25
2018-11-23T02:20:51.018Z,1012.29
2018-11-23T02:21:51.004Z,1012.26
2018-11-23T02:22:50.994Z,1012.26
2018-11-23T02:23:50.982Z,1012.28
2018-11-23T02:24:51.032Z,1012.26
2018-11-23T02:25:50.959Z,1012.26
2018-11-23T02:26:50.954Z,1012.27
2018-11-23T02:27:50.953Z,1012.29
2018-11-23T02:28:51.511Z,1012.25
2018-11-23T02:29:50.987Z,1012.22
2018-11-23T02:30:50.909Z,1012.26
2018-11-23T02:31:50.899Z,1012.24
2018-11-23T02:32:50.892Z,1012.27
2018-11-23T02:33:50.878Z,1012.24
2018-11-23T02:34:50.930Z,1012.30
2018-11-23T02:35:50.857Z,1012.28
2018-11-23T02:36:50.848Z,1012.29
2018-11-23T02:37:50.839Z,1012.32
2018-11-23T02:38:50.830Z,1012.34
2018-11-23T02:39:50.879Z,1012.31
2018-11-23T02:40:50.807Z,1012.32
2018-11-23T02:41:50.794Z,1012.34
2018-11-23T02:42:50.788Z,1012.26
2018-11-23T02:43:50.782Z,1012.34
2018-11-23T02:44:50.835Z,1012.30
2018-11-23T02:45:50.755Z,1012.30
2018-11-23T02:46:50.744Z,1012.29
2018-11-23T02:47:50.734Z,1012.23
2018-11-23T02:48:50.728Z,1012.29
2018-11-23T02:49:51.074Z,1012.33
2018-11-23T02:50:50.704Z,1012.33
2018-11-23T02:51:50.692Z,1012.34
2018-11-23T02:52:50.703Z,1012.28
2018-11-23T02:53:50.674Z,1012.26
2018-11-23T02:54:50.726Z,1012.29
2018-11-23T02:55:50.654Z,1012.24
2018-11-23T02:56:50.643Z,1012.24
2018-11-23T02:57:50.632Z,1012.27
2018-11-23T02:58:50.621Z,1012.24
2018-11-23T02:59:50.678Z,1012.16
2018-11-23T03:00:50.608Z,1012.18
2018-11-23T03:01:50.591Z,1012.19
2018-11-23T03:02:50.585Z,1012.18
2018-11-23T03:03:50.570Z,1012.16
2018-11-23T03:04:50.622Z,1012.17
2018-11-23T03:05:50.552Z,1012.12
2018-11-23T03:06:50.542Z,1012.17
2018-11-23T03:07:50.532Z,1012.16
2018-11-23T03:08:50.522Z,1012.14
2018-11-23T03:09:50.584Z,1012.14
2018-11-23T03:10:50.999Z,1012.15
2018-11-23T03:11:50.489Z,1012.14
2018-11-23T03:12:50.479Z,1012.14
2018-11-23T03:13:50.473Z,1012.09
2018-11-23T03:14:50.457Z,1012.13
2018-11-23T03:15:50.519Z,1012.12
2018-11-23T03:16:50.438Z,1012.09
2018-11-23T03:17:50.434Z,1012.14
2018-11-23T03:18:50.417Z,1012.08
2018-11-23T03:19:50.405Z,1012.12
2018-11-23T03:20:50.457Z,1012.08
2018-11-23T03:21:50.387Z,1012.09
2018-11-23T03:22:50.382Z,1012.03
2018-11-23T03:23:50.367Z,1012.06
2018-11-23T03:24:50.357Z,1012.11
2018-11-23T03:25:50.406Z,1012.08
2018-11-23T03:26:50.336Z,1012.05
2018-11-23T03:27:50.328Z,1012.05
2018-11-23T03:28:50.318Z,1012.02
2018-11-23T03:29:50.312Z,1012.04
2018-11-23T03:30:50.356Z,1012.06
2018-11-23T03:31:50.998Z,1012.02
2018-11-23T03:32:50.273Z,1012.06
2018-11-23T03:33:50.267Z,1012.04
2018-11-23T03:34:50.253Z,1012.00
2018-11-23T03:35:50.305Z,1011.97
2018-11-23T03:36:50.236Z,1011.98
2018-11-23T03:37:50.221Z,1011.97
2018-11-23T03:38:50.215Z,1012.01
2018-11-23T03:39:50.202Z,1012.03
2018-11-23T03:40:50.253Z,1012.04
2018-11-23T03:41:50.181Z,1011.99
2018-11-23T03:42:50.169Z,1011.98
2018-11-23T03:43:50.165Z,1012.01
2018-11-23T03:44:50.150Z,1012.03
2018-11-23T03:45:50.212Z,1011.99
2018-11-23T03:46:50.130Z,1011.95
2018-11-23T03:47:50.118Z,1011.99
2018-11-23T03:48:50.109Z,1011.93
2018-11-23T03:49:50.100Z,1011.91
2018-11-23T03:50:50.160Z,1011.96
2018-11-23T03:51:50.081Z,1011.90
2018-11-23T03:52:50.995Z,1011.91
2018-11-23T03:53:50.058Z,1011.98
2018-11-23T03:54:50.050Z,1011.96
2018-11-23T03:55:50.104Z,1011.97
2018-11-23T03:56:50.028Z,1012.01
2018-11-23T03:57:50.024Z,1012.01
2018-11-23T03:58:50.010Z,1012.06
2018-11-23T03:59:50.001Z,1012.04
2018-11-23T04:00:50.051Z,1011.94
2018-11-23T04:01:49.979Z,1011.97
2018-11-23T04:02:49.968Z,1011.99
2018-11-23T04:03:49.956Z,1012.00
2018-11-23T04:04:49.945Z,1011.99
2018-11-23T04:05:49.996Z,1012.03
2018-11-23T04:06:49.923Z,1012.03
2018-11-23T04:07:49.914Z,1011.99
2018-11-23T04:08:49.909Z,1011.96
2018-11-23T04:09:49.896Z,1011.99
2018-11-23T04:10:49.945Z,1012.00
2018-11-23T04:11:49.875Z,1012.01
2018-11-23T04:12:49.863Z,1011.94
2018-11-23T04:13:50.491Z,1012.00
2018-11-23T04:14:49.842Z,1012.08
2018-11-23T04:15:49.905Z,1012.05
2018-11-23T04:16:49.830Z,1011.97
2018-11-23T04:17:49.815Z,1011.96
2018-11-23T04:18:49.809Z,1011.98
2018-11-23T04:19:49.792Z,1011.97
2018-11-23T04:20:49.781Z,1011.95
2018-11-23T04:21:49.831Z,1011.94
2018-11-23T04:22:49.761Z,1011.89
2018-11-23T04:23:49.750Z,1011.91
2018-11-23T04:24:49.744Z,1011.90
2018-11-23T04:25:49.729Z,1011.97
2018-11-23T04:26:49.780Z,1011.93
2018-11-23T04:27:49.715Z,1011.91
2018-11-23T04:28:50.483Z,1011.92
2018-11-23T04:29:49.689Z,1011.97
2018-11-23T04:30:49.678Z,1011.99
2018-11-23T04:31:49.729Z,1012.00
2018-11-23T04:32:49.666Z,1011.99
2018-11-23T04:33:49.648Z,1012.00
2018-11-23T04:34:50.481Z,1012.04
2018-11-23T04:35:49.632Z,1012.05
2018-11-23T04:36:49.681Z,1012.05
2018-11-23T04:37:49.606Z,1012.06
2018-11-23T04:38:49.597Z,1012.05
2018-11-23T04:39:49.598Z,1012.01
2018-11-23T04:40:49.580Z,1012.00
2018-11-23T04:41:49.627Z,1011.98
2018-11-23T04:42:49.557Z,1011.97
2018-11-23T04:43:49.543Z,1011.97
2018-11-23T04:44:49.533Z,1011.99
2018-11-23T04:45:49.535Z,1011.99
2018-11-23T04:46:49.574Z,1011.99
2018-11-23T04:47:49.508Z,1012.03
2018-11-23T04:48:49.492Z,1012.05
2018-11-23T04:49:49.485Z,1012.10
2018-11-23T04:50:49.473Z,1012.14
2018-11-23T04:51:49.523Z,1012.12
2018-11-23T04:52:49.455Z,1012.11
2018-11-23T04:53:49.441Z,1012.16
2018-11-23T04:54:49.432Z,1012.13
2018-11-23T04:55:49.979Z,1012.16
2018-11-23T04:56:49.475Z,1012.20
2018-11-23T04:57:53.632Z,1012.23
2018-11-23T04:58:49.390Z,1012.15
2018-11-23T04:59:49.378Z,1012.12
2018-11-23T05:00:49.372Z,1012.09
2018-11-23T05:01:49.421Z,1012.07
2018-11-23T05:02:49.354Z,1012.08
2018-11-23T05:03:49.344Z,1012.04
2018-11-23T05:04:49.328Z,1012.02
2018-11-23T05:05:49.320Z,1012.02
2018-11-23T05:06:49.369Z,1012.01
2018-11-23T05:07:49.295Z,1012.01
2018-11-23T05:08:49.287Z,1012.00
2018-11-23T05:09:49.279Z,1012.01
2018-11-23T05:10:49.272Z,1011.97
2018-11-23T05:11:50.311Z,1011.98
2018-11-23T05:12:49.243Z,1011.96
2018-11-23T05:13:49.235Z,1011.98
2018-11-23T05:14:49.228Z,1011.96
2018-11-23T05:15:49.216Z,1011.92
2018-11-23T05:16:49.543Z,1011.89
2018-11-23T05:17:49.195Z,1011.97
2018-11-23T05:18:49.181Z,1011.98
2018-11-23T05:19:49.174Z,1011.91
2018-11-23T05:20:49.165Z,1011.89
2018-11-23T05:21:49.214Z,1011.90
2018-11-23T05:22:49.146Z,1011.89
2018-11-23T05:23:49.134Z,1011.91
2018-11-23T05:24:49.128Z,1011.89
2018-11-23T05:25:49.114Z,1011.90
2018-11-23T05:26:49.160Z,1011.92
2018-11-23T05:27:49.157Z,1011.98
2018-11-23T05:28:49.084Z,1011.95
2018-11-23T05:29:49.097Z,1012.00
2018-11-23T05:30:49.060Z,1011.99
2018-11-23T05:31:49.049Z,1011.94
2018-11-23T05:32:49.103Z,1011.88
2018-11-23T05:33:49.031Z,1011.88
2018-11-23T05:34:49.018Z,1011.91
2018-11-23T05:35:49.010Z,1011.90
2018-11-23T05:36:48.998Z,1011.90
2018-11-23T05:37:49.557Z,1011.90
2018-11-23T05:38:48.977Z,1011.85
2018-11-23T05:39:48.973Z,1011.89
2018-11-23T05:40:48.979Z,1011.83
2018-11-23T05:41:48.967Z,1011.85
2018-11-23T05:42:48.998Z,1011.82
2018-11-23T05:43:48.925Z,1011.80
2018-11-23T05:44:48.938Z,1011.76
2018-11-23T05:45:48.904Z,1011.75
2018-11-23T05:46:48.893Z,1011.73
2018-11-23T05:47:48.960Z,1011.71
2018-11-23T05:48:48.883Z,1011.72
2018-11-23T05:49:48.865Z,1011.71
2018-11-23T05:50:48.853Z,1011.72
2018-11-23T05:51:48.842Z,1011.75
2018-11-23T05:52:48.925Z,1011.75
2018-11-23T05:53:48.826Z,1011.75
2018-11-23T05:54:48.815Z,1011.73
2018-11-23T05:55:48.819Z,1011.76
2018-11-23T05:56:48.793Z,1011.71
2018-11-23T05:57:49.039Z,1011.74
2018-11-23T05:58:49.485Z,1011.70
2018-11-23T05:59:48.766Z,1011.72
2018-11-23T06:00:48.753Z,1011.71
2018-11-23T06:01:48.739Z,1011.68
2018-11-23T06:02:48.790Z,1011.73
2018-11-23T06:03:48.718Z,1011.64
2018-11-23T06:04:48.711Z,1011.61
2018-11-23T06:05:48.717Z,1011.64
2018-11-23T06:06:48.689Z,1011.66
2018-11-23T06:07:48.737Z,1011.62
2018-11-23T06:08:48.688Z,1011.67
2018-11-23T06:09:48.659Z,1011.67
2018-11-23T06:10:48.666Z,1011.71
2018-11-23T06:11:48.672Z,1011.69
2018-11-23T06:12:48.698Z,1011.67
2018-11-23T06:13:48.617Z,1011.63
2018-11-23T06:14:48.604Z,1011.64
2018-11-23T06:15:48.596Z,1011.60
2018-11-23T06:16:48.590Z,1011.56
2018-11-23T06:17:48.641Z,1011.61
2018-11-23T06:18:48.569Z,1011.60
2018-11-23T06:19:49.475Z,1011.60
2018-11-23T06:20:48.545Z,1011.65
2018-11-23T06:21:48.533Z,1011.68
2018-11-23T06:22:48.595Z,1011.67
2018-11-23T06:23:48.514Z,1011.64
2018-11-23T06:24:48.506Z,1011.66
2018-11-23T06:26:44.541Z,1011.69
2018-11-23T06:27:44.535Z,1011.72
2018-11-23T06:28:44.462Z,1011.77
2018-11-23T06:29:45.116Z,1011.78
2018-11-23T06:30:44.458Z,1011.73
2018-11-23T06:31:44.435Z,1011.74
2018-11-23T06:32:44.482Z,1011.68
2018-11-23T06:33:44.408Z,1011.73
2018-11-23T06:34:44.397Z,1011.80
2018-11-23T06:35:44.390Z,1011.80
2018-11-23T06:36:44.382Z,1011.86
2018-11-23T06:37:44.449Z,1011.80
2018-11-23T06:38:44.357Z,1011.77
2018-11-23T06:39:44.349Z,1011.81
2018-11-23T06:40:44.336Z,1011.88
2018-11-23T06:41:44.331Z,1011.88
2018-11-23T06:42:44.319Z,1011.92
2018-11-23T06:43:44.402Z,1011.92
2018-11-23T06:44:44.294Z,1011.93
2018-11-23T06:45:44.288Z,1011.90
2018-11-23T06:46:45.114Z,1011.89
2018-11-23T06:47:44.270Z,1011.94
2018-11-23T06:48:44.322Z,1011.88
2018-11-23T06:49:44.244Z,1011.89
2018-11-23T06:50:44.235Z,1011.90
2018-11-23T06:51:44.225Z,1011.93
2018-11-23T06:52:44.215Z,1011.94
2018-11-23T06:53:44.273Z,1012.00
2018-11-23T06:54:44.196Z,1011.97
2018-11-23T06:55:44.184Z,1012.00
2018-11-23T06:56:44.172Z,1012.02
2018-11-23T06:57:44.163Z,1011.94
2018-11-23T06:58:44.214Z,1011.95
2018-11-23T06:59:44.150Z,1011.90
2018-11-23T07:00:44.133Z,1011.93
2018-11-23T07:01:44.121Z,1011.95
2018-11-23T07:02:44.114Z,1011.93
2018-11-23T07:03:44.169Z,1011.93
2018-11-23T07:04:44.093Z,1011.98
2018-11-23T07:05:44.084Z,1011.96
2018-11-23T07:06:44.073Z,1011.98
2018-11-23T07:07:44.612Z,1011.99
2018-11-23T07:08:44.109Z,1012.00
2018-11-23T07:09:44.040Z,1011.99
2018-11-23T07:10:44.033Z,1011.96
2018-11-23T07:11:44.019Z,1011.97
2018-11-23T07:12:44.008Z,1012.02
2018-11-23T07:13:44.059Z,1011.99
2018-11-23T07:14:43.989Z,1012.02
2018-11-23T07:15:43.978Z,1011.96
2018-11-23T07:16:43.969Z,1011.96
2018-11-23T07:17:43.956Z,1011.94
2018-11-23T07:18:44.008Z,1011.97
2018-11-23T07:19:43.937Z,1011.95
2018-11-23T07:20:43.926Z,1011.91
2018-11-23T07:21:43.914Z,1011.98
2018-11-23T07:22:43.907Z,1011.98
2018-11-23T07:23:43.957Z,1012.00
2018-11-23T07:24:43.887Z,1011.98
2018-11-23T07:25:43.877Z,1011.99
2018-11-23T07:26:43.863Z,1011.99
2018-11-23T07:27:43.854Z,1011.96
2018-11-23T07:28:44.176Z,1012.03
2018-11-23T07:29:43.841Z,1011.98
2018-11-23T07:30:43.824Z,1011.96
2018-11-23T07:31:43.813Z,1011.99
2018-11-23T07:32:43.803Z,1011.96
2018-11-23T07:33:43.863Z,1011.94
2018-11-23T07:34:43.785Z,1012.00
2018-11-23T07:35:43.772Z,1011.95
2018-11-23T07:36:43.768Z,1011.88
2018-11-23T07:37:43.749Z,1011.91
2018-11-23T07:38:43.811Z,1011.96
2018-11-23T07:39:43.736Z,1011.95
2018-11-23T07:40:43.721Z,1011.94
2018-11-23T07:41:43.707Z,1011.96
2018-11-23T07:42:43.699Z,1011.99
2018-11-23T07:43:43.689Z,1011.91
2018-11-23T07:44:43.738Z,1011.98
2018-11-23T07:45:43.671Z,1012.02
2018-11-23T07:46:43.656Z,1011.94
2018-11-23T07:47:43.647Z,1011.95
2018-11-23T07:48:43.638Z,1011.96
2018-11-23T07:49:44.676Z,1011.95
2018-11-23T07:50:43.617Z,1011.98
2018-11-23T07:51:43.606Z,1011.97
2018-11-23T07:52:43.594Z,1011.99
2018-11-23T07:53:43.588Z,1012.00
2018-11-23T07:54:43.642Z,1012.04
2018-11-23T07:55:43.564Z,1011.99
2018-11-23T07:56:43.554Z,1012.03
2018-11-23T07:57:43.543Z,1011.93
2018-11-23T07:58:43.533Z,1011.93
2018-11-23T07:59:43.587Z,1011.97
2018-11-23T08:00:43.510Z,1011.93
2018-11-23T08:01:43.504Z,1011.94
2018-11-23T08:02:43.494Z,1011.94
2018-11-23T08:03:43.486Z,1011.95
2018-11-23T08:04:43.532Z,1011.96
2018-11-23T08:05:43.471Z,1011.98
2018-11-23T08:06:43.450Z,1011.93
2018-11-23T08:07:43.462Z,1011.92
2018-11-23T08:08:43.432Z,1011.86
2018-11-23T08:09:43.488Z,1011.86
2018-11-23T08:10:45.099Z,1011.84
2018-11-23T08:11:43.404Z,1011.80
2018-11-23T08:12:43.390Z,1011.82
2018-11-23T08:13:43.381Z,1011.79
2018-11-23T08:14:43.430Z,1011.82
2018-11-23T08:15:43.360Z,1011.83
2018-11-23T08:16:43.348Z,1011.79
2018-11-23T08:17:43.381Z,1011.78
2018-11-23T08:18:43.328Z,1011.72
2018-11-23T08:19:47.335Z,1011.76
2018-11-23T08:20:43.307Z,1011.73
2018-11-23T08:21:43.297Z,1011.75
2018-11-23T08:22:43.288Z,1011.77
2018-11-23T08:23:43.282Z,1011.81
2018-11-23T08:24:43.330Z,1011.82
2018-11-23T08:25:43.255Z,1011.87
2018-11-23T08:26:43.246Z,1011.84
2018-11-23T08:27:43.242Z,1011.86
2018-11-23T08:28:43.226Z,1011.83
2018-11-23T08:29:43.274Z,1011.82
2018-11-23T08:30:43.207Z,1011.80
2018-11-23T08:31:44.096Z,1011.75
2018-11-23T08:32:43.189Z,1011.77
2018-11-23T08:33:43.176Z,1011.75
2018-11-23T08:34:43.227Z,1011.75
2018-11-23T08:35:43.180Z,1011.74
2018-11-23T08:36:43.141Z,1011.78
2018-11-23T08:37:43.135Z,1011.79
2018-11-23T08:38:43.123Z,1011.76
2018-11-23T08:39:43.170Z,1011.74
2018-11-23T08:40:43.102Z,1011.75
2018-11-23T08:41:43.093Z,1011.74
2018-11-23T08:42:43.087Z,1011.66
2018-11-23T08:43:43.074Z,1011.67
2018-11-23T08:44:43.121Z,1011.59
2018-11-23T08:45:43.046Z,1011.61
2018-11-23T08:46:43.037Z,1011.59
2018-11-23T08:47:43.028Z,1011.61
2018-11-23T08:48:43.019Z,1011.51
2018-11-23T08:49:43.084Z,1011.54
2018-11-23T08:50:42.995Z,1011.60
2018-11-23T08:51:42.983Z,1011.58
2018-11-23T08:52:43.590Z,1011.49
2018-11-23T08:53:42.965Z,1011.51
2018-11-23T08:54:42.956Z,1011.54
2018-11-23T08:55:43.011Z,1011.52
2018-11-23T08:56:42.932Z,1011.55
2018-11-23T08:57:42.924Z,1011.51
2018-11-23T08:58:42.918Z,1011.51
2018-11-23T08:59:42.902Z,1011.45
2018-11-23T09:00:42.959Z,1011.48
2018-11-23T09:01:42.879Z,1011.40
2018-11-23T09:02:42.872Z,1011.42
2018-11-23T09:03:42.860Z,1011.50
2018-11-23T09:04:42.853Z,1011.52
2018-11-23T09:05:42.906Z,1011.48
2018-11-23T09:06:42.825Z,1011.50
2018-11-23T09:07:42.819Z,1011.54
2018-11-23T09:08:42.807Z,1011.54
2018-11-23T09:09:42.795Z,1011.55
2018-11-23T09:10:42.852Z,1011.47
2018-11-23T09:11:42.777Z,1011.48
2018-11-23T09:12:42.762Z,1011.45
2018-11-23T09:13:43.586Z,1011.42
2018-11-23T09:14:42.747Z,1011.40
2018-11-23T09:15:42.793Z,1011.48
2018-11-23T09:16:42.725Z,1011.41
2018-11-23T09:17:42.714Z,1011.35
2018-11-23T09:18:42.701Z,1011.26
2018-11-23T09:19:42.691Z,1011.34
2018-11-23T09:20:42.744Z,1011.36
2018-11-23T09:21:42.671Z,1011.36
2018-11-23T09:22:42.663Z,1011.36
2018-11-23T09:23:42.649Z,1011.31
2018-11-23T09:24:42.637Z,1011.37
2018-11-23T09:25:42.693Z,1011.39
2018-11-23T09:26:42.620Z,1011.30
2018-11-23T09:27:42.609Z,1011.29
2018-11-23T09:28:42.598Z,1011.30
2018-11-23T09:29:42.586Z,1011.14
2018-11-23T09:30:42.638Z,1011.21
2018-11-23T09:31:42.563Z,1011.20
2018-11-23T09:32:42.554Z,1011.18
2018-11-23T09:33:42.542Z,1011.13
2018-11-23T09:34:43.083Z,1011.18
2018-11-23T09:35:42.590Z,1011.23
2018-11-23T09:36:42.516Z,1011.29
2018-11-23T09:37:42.502Z,1011.23
2018-11-23T09:38:42.493Z,1011.22
2018-11-23T09:39:42.479Z,1011.26
2018-11-23T09:40:42.528Z,1011.21
2018-11-23T09:41:42.463Z,1011.25
2018-11-23T09:42:42.448Z,1011.16
2018-11-23T09:43:42.440Z,1011.27
2018-11-23T09:44:42.428Z,1011.25
2018-11-23T09:45:42.485Z,1011.22
2018-11-23T09:46:42.404Z,1011.16
2018-11-23T09:47:42.406Z,1011.22
2018-11-23T09:48:42.386Z,1011.16
2018-11-23T09:49:42.377Z,1011.21
2018-11-23T09:50:42.427Z,1011.11
2018-11-23T09:51:42.353Z,1011.08
2018-11-23T09:52:42.349Z,1011.04
2018-11-23T09:53:42.341Z,1011.04
2018-11-23T09:54:42.318Z,1011.05
2018-11-23T09:55:42.661Z,1011.12
2018-11-23T09:56:42.299Z,1011.15
2018-11-23T09:57:42.289Z,1011.06
2018-11-23T09:58:43.759Z,1011.09
2018-11-23T09:59:42.267Z,1011.13
2018-11-23T10:00:42.259Z,1011.07
2018-11-23T10:01:42.305Z,1011.01
2018-11-23T10:02:42.255Z,1011.10
2018-11-23T10:03:42.223Z,1011.00
2018-11-23T10:04:42.214Z,1011.02
2018-11-23T10:05:42.202Z,1010.99
2018-11-23T10:06:42.261Z,1011.03
2018-11-23T10:07:42.189Z,1011.00
2018-11-23T10:08:42.177Z,1010.97
2018-11-23T10:09:42.159Z,1010.90
2018-11-23T10:10:42.153Z,1010.91
2018-11-23T10:11:42.206Z,1010.99
2018-11-23T10:12:42.130Z,1010.96
2018-11-23T10:13:42.118Z,1010.94
2018-11-23T10:14:42.137Z,1010.90
2018-11-23T10:15:42.100Z,1010.85
2018-11-23T10:16:42.655Z,1010.94
2018-11-23T10:17:42.083Z,1010.89
2018-11-23T10:18:42.064Z,1010.93
2018-11-23T10:19:42.058Z,1010.85
2018-11-23T10:20:42.043Z,1010.82
2018-11-23T10:21:42.107Z,1010.78
2018-11-23T10:22:42.033Z,1010.80
2018-11-23T10:23:42.040Z,1010.79
2018-11-23T10:24:42.005Z,1010.82
2018-11-23T10:25:41.990Z,1010.78
2018-11-23T10:26:42.070Z,1010.83
2018-11-23T10:27:41.972Z,1010.87
2018-11-23T10:28:41.962Z,1010.88
2018-11-23T10:29:41.948Z,1010.85
2018-11-23T10:30:41.945Z,1010.81
2018-11-23T10:31:42.155Z,1010.79
2018-11-23T10:32:41.913Z,1010.84
2018-11-23T10:33:41.906Z,1010.76
2018-11-23T10:34:41.908Z,1010.74
2018-11-23T10:35:41.899Z,1010.72
2018-11-23T10:36:41.940Z,1010.68
2018-11-23T10:37:42.583Z,1010.77
2018-11-23T10:38:41.853Z,1010.71
2018-11-23T10:39:41.857Z,1010.75
2018-11-23T10:40:41.831Z,1010.70
2018-11-23T10:41:41.887Z,1010.72
2018-11-23T10:42:41.809Z,1010.70
2018-11-23T10:43:41.798Z,1010.72
2018-11-23T10:44:41.790Z,1010.72
2018-11-23T10:45:41.778Z,1010.68
2018-11-23T10:46:41.847Z,1010.67
2018-11-23T10:47:41.758Z,1010.65
2018-11-23T10:48:41.743Z,1010.66
2018-11-23T10:49:41.739Z,1010.59
2018-11-23T10:50:41.727Z,1010.58
2018-11-23T10:51:41.784Z,1010.56
2018-11-23T10:52:41.704Z,1010.60
2018-11-23T10:53:41.692Z,1010.58
2018-11-23T10:54:41.680Z,1010.50
2018-11-23T10:55:41.676Z,1010.49
2018-11-23T10:56:41.728Z,1010.54
2018-11-23T10:57:41.655Z,1010.53
2018-11-23T10:58:42.584Z,1010.49
2018-11-23T10:59:41.632Z,1010.43
2018-11-23T11:00:41.619Z,1010.41
2018-11-23T11:01:41.674Z,1010.42
2018-11-23T11:02:41.596Z,1010.37
2018-11-23T11:03:41.591Z,1010.39
2018-11-23T11:04:41.573Z,1010.37
2018-11-23T11:05:41.566Z,1010.35
2018-11-23T11:06:41.636Z,1010.35
2018-11-23T11:07:41.545Z,1010.28
2018-11-23T11:08:41.533Z,1010.22
2018-11-23T11:09:41.525Z,1010.28
2018-11-23T11:10:41.607Z,1010.28
2018-11-23T11:11:41.501Z,1010.25
2018-11-23T11:12:41.558Z,1010.24
2018-11-23T11:13:41.482Z,1010.23
2018-11-23T11:14:41.471Z,1010.21
2018-11-23T11:15:41.472Z,1010.17
2018-11-23T11:16:41.466Z,1010.14
2018-11-23T11:17:41.530Z,1010.10
2018-11-23T11:18:41.431Z,1010.09
2018-11-23T11:19:42.091Z,1010.03
2018-11-23T11:20:41.430Z,1010.05
2018-11-23T11:21:41.399Z,1010.06
2018-11-23T11:22:41.448Z,1010.05
2018-11-23T11:23:41.373Z,1010.06
2018-11-23T11:24:41.364Z,1010.04
2018-11-23T11:25:41.356Z,1010.00
2018-11-23T11:26:41.343Z,1010.06
2018-11-23T11:27:41.400Z,1009.98
2018-11-23T11:28:41.322Z,1010.00
2018-11-23T11:29:41.310Z,1010.02
2018-11-23T11:30:41.301Z,1009.94
2018-11-23T11:31:41.289Z,1009.90
2018-11-23T11:32:41.341Z,1009.93
2018-11-23T11:33:41.273Z,1009.87
2018-11-23T11:34:41.263Z,1009.87
2018-11-23T11:35:41.268Z,1009.88
2018-11-23T11:36:41.239Z,1009.83
2018-11-23T11:37:41.288Z,1009.91
2018-11-23T11:38:41.215Z,1009.80
2018-11-23T11:39:41.214Z,1009.89
2018-11-23T11:40:42.088Z,1009.86
2018-11-23T11:41:41.187Z,1009.89
2018-11-23T11:42:41.251Z,1009.85
2018-11-23T11:43:41.171Z,1009.85
2018-11-23T11:44:41.156Z,1009.82
2018-11-23T11:45:41.145Z,1009.83
2018-11-23T11:46:41.139Z,1009.81
2018-11-23T11:47:41.189Z,1009.80
2018-11-23T11:48:41.112Z,1009.78
2018-11-23T11:49:41.104Z,1009.84
2018-11-23T11:50:41.097Z,1009.76
2018-11-23T11:51:41.084Z,1009.74
2018-11-23T11:52:41.137Z,1009.76
2018-11-23T11:53:41.061Z,1009.74
2018-11-23T11:54:41.052Z,1009.75
2018-11-23T11:55:41.049Z,1009.68
2018-11-23T11:56:41.031Z,1009.65
2018-11-23T11:57:41.081Z,1009.68
2018-11-23T11:58:41.010Z,1009.65
2018-11-23T11:59:40.999Z,1009.63
2018-11-23T12:00:40.990Z,1009.67
2018-11-23T12:01:41.589Z,1009.70
2018-11-23T12:02:41.035Z,1009.65
2018-11-23T12:03:40.960Z,1009.58
2018-11-23T12:04:40.956Z,1009.59
2018-11-23T12:05:40.936Z,1009.58
2018-11-23T12:06:40.929Z,1009.54